Time;durP1;ratioP1;P1;durP2;ratioP2;P2;SDS_P1;SDS_P2;PMS_P1;PMS_P2;Temp;Humidity;BMP_temperature;BMP_pressure;BME280_temperature;BME280_humidity;BME280_pressure;Samples;Min_cycle;Max_cycle;Signal;HPM_P1;HPM_P2
2021/03/22 00:00:31;;;;;;;26.52;10.05;;;;;;;-0.62;77.00;100623.98;1647100;85;25938;-60
2021/03/22 00:02:59;;;;;;;31.12;11.00;;;;;;;-0.66;76.98;100618.72;1645224;84;28274;-60
2021/03/22 00:05:28;;;;;;;33.05;9.40;;;;;;;-0.67;77.06;100621.34;1647404;84;25959;-61
2021/03/22 00:07:56;;;;;;;35.45;12.03;;;;;;;-0.67;77.12;100621.34;1649418;84;25986;-61
2021/03/22 00:10:28;;;;;;;27.67;10.38;;;;;;;-0.66;77.13;100615.21;1641868;84;25923;-61
2021/03/22 00:12:58;;;;;;;25.57;9.65;;;;;;;-0.64;77.20;100623.98;1660187;83;26600;-60
2021/03/22 00:15:29;;;;;;;31.25;10.55;;;;;;;-0.63;77.16;100623.55;1668043;84;27511;-61
2021/03/22 00:17:59;;;;;;;32.28;10.48;;;;;;;-0.66;77.17;100627.05;1665071;82;25882;-61
2021/03/22 00:20:28;;;;;;;27.60;10.82;;;;;;;-0.66;77.21;100628.38;1658925;84;27967;-61
2021/03/22 00:22:56;;;;;;;34.30;10.68;;;;;;;-0.66;77.27;100629.69;1622659;85;25869;-61
2021/03/22 00:25:24;;;;;;;41.37;11.60;;;;;;;-0.62;77.33;100629.25;1622870;85;25885;-61
2021/03/22 00:27:52;;;;;;;28.50;9.60;;;;;;;-0.57;77.38;100632.77;1613656;85;26379;-61
2021/03/22 00:30:34;;;;;;;35.43;12.55;;;;;;;-0.54;77.34;100632.78;1637998;85;25911;-61
2021/03/22 00:33:03;;;;;;;28.87;11.57;;;;;;;-0.56;77.31;100619.61;1684405;83;25847;-60
2021/03/22 00:35:32;;;;;;;39.27;12.33;;;;;;;-0.57;77.33;100629.70;1657316;83;26519;-61
2021/03/22 00:38:00;;;;;;;51.80;13.45;;;;;;;-0.59;77.35;100627.50;1650508;84;25928;-60
2021/03/22 00:40:32;;;;;;;36.90;12.88;;;;;;;-0.62;77.37;100623.55;1651437;83;27627;-61
2021/03/22 00:43:00;;;;;;;35.75;12.40;;;;;;;-0.67;77.39;100618.72;1664917;84;25792;-61
2021/03/22 00:45:28;;;;;;;37.10;12.95;;;;;;;-0.70;77.43;100618.71;1664285;83;26058;-61
2021/03/22 00:47:56;;;;;;;35.20;12.58;;;;;;;-0.76;77.48;100601.59;1647880;84;25924;-61
2021/03/22 00:50:30;;;;;;;41.68;12.25;;;;;;;-0.69;77.54;100624.42;1656146;84;25910;-61
2021/03/22 00:52:58;;;;;;;30.65;11.55;;;;;;;-0.71;77.53;100623.09;1656808;83;28400;-60
2021/03/22 00:55:27;;;;;;;31.35;11.00;;;;;;;-0.73;77.55;100619.59;1659880;84;25992;-60
2021/03/22 00:57:55;;;;;;;36.75;10.80;;;;;;;-0.73;77.57;100617.39;1656721;83;25861;-60
2021/03/22 01:00:43;;;;;;;31.00;10.75;;;;;;;-0.76;77.65;100609.05;1654197;84;25884;-60
2021/03/22 01:03:16;;;;;;;43.98;11.63;;;;;;;-0.76;77.64;100607.73;1654371;84;25860;-60
2021/03/22 01:05:44;;;;;;;33.80;10.90;;;;;;;-0.78;77.67;100604.66;1661828;82;27966;-60
2021/03/22 01:08:13;;;;;;;35.20;11.88;;;;;;;-0.80;77.74;100607.73;1670836;82;25912;-60
2021/03/22 01:10:54;;;;;;;37.40;11.30;;;;;;;-0.83;77.67;100609.91;1660376;82;25773;-61
2021/03/22 01:13:26;;;;;;;34.38;11.78;;;;;;;-0.85;77.73;100606.84;1667951;83;25926;-59
2021/03/22 01:15:55;;;;;;;21.62;9.75;;;;;;;-0.86;77.81;100612.54;1668719;82;26298;-59
2021/03/22 01:18:28;;;;;;;26.42;9.50;;;;;;;-0.86;77.83;100605.08;1666420;82;28005;-60
2021/03/22 01:21:01;;;;;;;29.72;9.75;;;;;;;-0.87;77.86;100597.63;1669549;83;25870;-59
2021/03/22 01:23:29;;;;;;;33.02;10.53;;;;;;;-0.88;77.83;100594.55;1663942;82;26421;-59
2021/03/22 01:25:57;;;;;;;25.97;9.73;;;;;;;-0.91;77.88;100600.25;1669129;82;25923;-59
2021/03/22 01:28:25;;;;;;;21.42;8.78;;;;;;;-0.91;77.93;100597.61;1684617;82;26200;-59
2021/03/22 01:31:00;;;;;;;26.30;7.65;;;;;;;-0.92;77.96;100596.73;1657521;82;26617;-59
2021/03/22 01:33:32;;;;;;;27.62;9.30;;;;;;;-0.95;77.95;100597.17;1668769;82;25813;-61
2021/03/22 01:36:03;;;;;;;23.77;9.15;;;;;;;-0.96;77.97;100596.29;1655471;82;25973;-60
2021/03/22 01:38:32;;;;;;;23.40;8.98;;;;;;;-0.97;78.01;100587.08;1659808;82;26390;-60
2021/03/22 01:41:59;;;;;;;24.65;8.58;;;;;;;-0.99;78.01;100587.95;1660753;82;25831;-60
2021/03/22 01:44:44;;;;;;;34.35;10.05;;;;;;;-1.01;78.02;100585.75;1636763;85;27843;-59
2021/03/22 01:47:20;;;;;;;33.95;9.65;;;;;;;-1.04;78.10;100583.55;1636093;84;26730;-59
2021/03/22 01:50:14;;;;;;;29.48;9.53;;;;;;;-1.03;78.24;100576.98;1663742;82;25892;-61
2021/03/22 01:52:45;;;;;;;27.25;8.50;;;;;;;-1.03;78.25;100576.98;1656278;82;26859;-59
2021/03/22 01:55:15;;;;;;;27.05;9.23;;;;;;;-1.00;78.25;100577.42;1673416;82;25851;-59
2021/03/22 01:57:46;;;;;;;26.82;10.08;;;;;;;-0.99;78.34;100572.17;1659401;82;28586;-59
2021/03/22 02:00:32;;;;;;;27.57;9.73;;;;;;;-0.95;78.40;100573.05;1677785;82;26586;-59
2021/03/22 02:03:12;;;;;;;20.00;8.38;;;;;;;-0.92;78.44;100570.42;1672135;82;25944;-59
2021/03/22 02:05:45;;;;;;;27.35;8.48;;;;;;;-0.89;78.44;100576.13;1668919;82;25848;-59
2021/03/22 02:08:18;;;;;;;27.45;8.50;;;;;;;-0.88;78.39;100573.94;1665539;84;25923;-59
2021/03/22 02:10:46;;;;;;;28.85;8.65;;;;;;;-0.89;78.37;100563.86;1665202;82;27909;-61
2021/03/22 02:13:19;;;;;;;21.73;7.90;;;;;;;-0.90;78.45;100569.12;1671833;82;25778;-59
2021/03/22 02:15:49;;;;;;;22.98;8.50;;;;;;;-0.87;78.45;100575.70;1669818;82;26662;-59
2021/03/22 02:18:47;;;;;;;28.07;9.20;;;;;;;-0.87;78.47;100575.27;1676474;82;26522;-59
2021/03/22 02:22:06;;;;;;;19.80;8.20;;;;;;;-0.87;78.46;100572.63;1665991;84;25782;-59
2021/03/22 02:24:48;;;;;;;21.68;8.23;;;;;;;-0.88;78.52;100573.51;1671354;82;27610;-59
2021/03/22 02:28:02;;;;;;;24.82;8.50;;;;;;;-0.84;78.67;100566.05;1664348;84;25921;-59
2021/03/22 02:30:53;;;;;;;27.02;8.90;;;;;;;-0.80;78.68;100566.50;1672147;82;25986;-59
2021/03/22 02:34:03;;;;;;;23.30;8.83;;;;;;;-0.76;78.76;100572.65;1667436;84;25960;-59
2021/03/22 02:36:57;;;;;;;26.82;8.60;;;;;;;-0.72;78.81;100566.52;1668817;82;25871;-66
2021/03/22 02:39:30;;;;;;;23.90;8.65;;;;;;;-0.69;78.80;100561.25;1662585;84;27922;-64
2021/03/22 02:42:01;;;;;;;20.75;7.95;;;;;;;-0.66;78.83;100566.52;1669962;84;25860;-64
2021/03/22 02:44:32;;;;;;;;;;;;;;;-0.65;78.82;100561.70;1680621;82;25832;-63
2021/03/22 02:47:05;;;;;;;18.75;6.97;;;;;;;-0.62;78.85;100560.82;1672248;83;26497;-64
2021/03/22 02:49:39;;;;;;;21.02;7.33;;;;;;;-0.61;78.84;100565.20;1620132;85;26611;-63
2021/03/22 02:52:46;;;;;;;15.98;6.67;;;;;;;-0.59;78.86;100563.45;1629409;85;27671;-64
2021/03/22 02:55:35;;;;;;;22.85;7.80;;;;;;;-0.57;78.89;100569.59;1666858;83;25787;-64
2021/03/22 02:58:11;;;;;;;17.57;6.65;;;;;;;-0.58;78.89;100570.03;1632216;85;25844;-64
2021/03/22 03:00:44;;;;;;;24.32;7.00;;;;;;;-0.55;78.92;100564.77;1616892;85;26569;-64
2021/03/22 03:03:16;;;;;;;17.67;5.80;;;;;;;-0.52;78.97;100571.80;1671000;84;25884;-64
2021/03/22 03:05:53;;;;;;;16.77;6.20;;;;;;;-0.51;78.94;100574.42;1669771;82;27455;-64
2021/03/22 03:08:27;;;;;;;26.23;6.60;;;;;;;-0.49;78.94;100579.25;1676229;84;25844;-65
2021/03/22 03:10:56;;;;;;;20.20;6.85;;;;;;;-0.46;79.01;100576.62;1667696;84;26701;-65
2021/03/22 03:13:24;;;;;;;19.20;6.55;;;;;;;-0.44;78.98;100576.19;1668748;84;26647;-65
2021/03/22 03:15:52;;;;;;;16.10;6.25;;;;;;;-0.43;79.01;100578.38;1689230;82;25920;-65
2021/03/22 03:18:20;;;;;;;16.60;7.33;;;;;;;-0.42;78.99;100584.96;1678479;84;26045;-64
2021/03/22 03:20:49;;;;;;;21.80;6.87;;;;;;;-0.40;79.01;100584.52;1665497;82;26126;-65
2021/03/22 03:23:18;;;;;;;26.93;7.00;;;;;;;-0.38;79.04;100594.62;1672515;84;25891;-65
2021/03/22 03:25:46;;;;;;;19.17;7.55;;;;;;;-0.37;79.03;100592.42;1669731;84;25780;-64
2021/03/22 03:28:14;;;;;;;24.10;7.78;;;;;;;-0.39;79.05;100598.56;1666134;84;26541;-65
2021/03/22 03:30:41;;;;;;;16.48;6.53;;;;;;;-0.40;79.06;100614.80;1668820;82;27674;-64
2021/03/22 03:33:12;;;;;;;24.87;7.95;;;;;;;-0.40;79.06;100611.29;1672540;84;25947;-65
2021/03/22 03:35:43;;;;;;;;;;;;;;;-0.43;79.05;100608.66;1682840;82;26432;-65
2021/03/22 03:38:12;;;;;;;20.68;8.68;;;;;;;-0.47;79.01;100609.53;1673771;84;26073;-65
2021/03/22 03:40:47;;;;;;;30.57;9.95;;;;;;;-0.51;79.09;100599.44;1671883;82;25871;-65
2021/03/22 03:43:16;;;;;;;23.25;8.50;;;;;;;-0.51;79.07;100602.06;1655732;84;27523;-65
2021/03/22 03:45:46;;;;;;;28.57;10.05;;;;;;;-0.52;79.05;100604.27;1668581;82;25984;-65
2021/03/22 03:48:22;;;;;;;24.05;9.40;;;;;;;-0.52;79.06;100602.06;1668543;84;25775;-65
2021/03/22 03:50:54;;;;;;;27.65;8.80;;;;;;;-0.53;79.09;100605.58;1666600;84;25826;-65
2021/03/22 03:53:22;;;;;;;26.80;8.75;;;;;;;-0.53;79.12;100603.82;1667392;82;25937;-65
2021/03/22 03:55:50;;;;;;;27.22;9.95;;;;;;;-0.54;79.09;100613.91;1674023;82;27762;-65
2021/03/22 03:58:18;;;;;;;28.45;9.40;;;;;;;-0.54;79.12;100614.35;1674231;82;26536;-65
2021/03/22 04:00:48;;;;;;;23.77;8.70;;;;;;;-0.54;79.14;100612.59;1668056;82;26365;-65
2021/03/22 04:03:31;;;;;;;29.82;11.12;;;;;;;-0.54;79.08;100610.41;1658309;84;26118;-64
2021/03/22 04:06:13;;;;;;;24.40;8.83;;;;;;;-0.56;79.10;100612.16;1665564;84;26638;-65
2021/03/22 04:08:49;;;;;;;28.38;9.55;;;;;;;-0.60;79.10;100609.08;1667727;82;27982;-65
2021/03/22 04:11:25;;;;;;;23.55;9.98;;;;;;;-0.64;79.09;100603.37;1669410;84;25886;-65
2021/03/22 04:13:55;;;;;;;23.77;8.75;;;;;;;-0.68;79.12;100601.17;1663733;82;26495;-65
2021/03/22 04:16:26;;;;;;;24.87;8.80;;;;;;;-0.71;79.10;100602.48;1662724;84;26504;-65
2021/03/22 04:18:54;;;;;;;28.38;8.15;;;;;;;-0.74;79.12;100605.98;1667973;82;32568;-64
2021/03/22 04:21:29;;;;;;;22.50;8.43;;;;;;;-0.77;79.11;100609.92;1671037;84;28437;-65
2021/03/22 04:24:00;;;;;;;27.67;7.83;;;;;;;-0.80;79.16;100615.63;1663979;84;26451;-65
2021/03/22 04:26:28;;;;;;;33.33;9.35;;;;;;;-0.80;79.14;100611.67;1673430;84;26136;-66
2021/03/22 04:28:56;;;;;;;22.75;8.58;;;;;;;-0.84;79.16;100613.86;1671315;82;26511;-65
2021/03/22 04:31:27;;;;;;;20.35;7.25;;;;;;;-0.87;79.11;100612.09;1661995;82;26285;-65
2021/03/22 04:33:56;;;;;;;27.00;8.33;;;;;;;-0.90;79.13;100612.53;1662278;84;28051;-65
2021/03/22 04:36:28;;;;;;;21.33;8.55;;;;;;;-0.94;79.16;100614.70;1668683;82;26535;-64
2021/03/22 04:38:57;;;;;;;23.25;9.03;;;;;;;-0.96;79.16;100616.45;1671676;83;26566;-65
2021/03/22 04:41:26;;;;;;;21.35;7.95;;;;;;;-1.00;79.15;100623.02;1667865;82;25988;-64
2021/03/22 04:43:53;;;;;;;24.07;8.33;;;;;;;-1.04;79.12;100621.70;1661680;82;25936;-65
2021/03/22 04:46:24;;;;;;;25.57;9.65;;;;;;;-1.08;79.17;100616.86;1679342;82;27658;-65
2021/03/22 04:48:52;;;;;;;17.15;7.65;;;;;;;-1.10;79.22;100623.87;1662759;84;25923;-65
2021/03/22 04:51:20;;;;;;;25.08;9.60;;;;;;;-1.11;79.26;100627.37;1666702;84;26564;-64
2021/03/22 04:53:47;;;;;;;22.02;8.05;;;;;;;-1.10;79.28;100627.81;1662834;84;26037;-64
2021/03/22 04:56:15;;;;;;;25.80;8.43;;;;;;;-1.11;79.26;100631.31;1670849;82;25761;-65
2021/03/22 04:58:43;;;;;;;22.73;8.40;;;;;;;-1.12;79.24;100636.57;1677012;82;28128;-64
2021/03/22 05:01:11;;;;;;;29.18;9.48;;;;;;;-1.16;79.25;100634.36;1671470;84;25925;-65
2021/03/22 05:03:38;;;;;;;27.13;9.10;;;;;;;-1.18;79.29;100633.48;1671032;82;25995;-65
2021/03/22 05:06:06;;;;;;;24.57;9.48;;;;;;;-1.18;79.29;100646.63;1672946;82;25741;-64
2021/03/22 05:08:34;;;;;;;33.65;8.68;;;;;;;-1.18;79.35;100644.44;1667970;82;26430;-64
2021/03/22 05:11:02;;;;;;;18.75;7.47;;;;;;;-1.18;79.38;100644.00;1662961;82;28452;-64
2021/03/22 05:13:31;;;;;;;18.45;7.20;;;;;;;-1.16;79.40;100634.80;1665762;82;26404;-66
2021/03/22 05:15:59;;;;;;;21.68;7.87;;;;;;;-1.16;79.36;100640.94;1670071;84;25789;-65
2021/03/22 05:18:31;;;;;;;20.48;7.80;;;;;;;-1.16;79.39;100640.94;1666384;83;25993;-65
2021/03/22 05:21:03;;;;;;;;;;;;;;;-1.12;79.49;100641.83;1683277;82;26556;-65
2021/03/22 05:23:33;;;;;;;22.48;7.40;;;;;;;-1.28;79.47;100611.09;1684819;82;27486;-66
2021/03/22 05:26:01;;;;;;;22.93;7.15;;;;;;;-1.09;79.50;100644.47;1662500;83;25923;-65
2021/03/22 05:28:31;;;;;;;16.77;6.37;;;;;;;-1.06;79.51;100652.38;1664038;82;26600;-65
2021/03/22 05:31:00;;;;;;;23.05;9.50;;;;;;;-1.03;79.57;100647.13;1667803;83;26011;-65
2021/03/22 05:33:30;;;;;;;26.77;8.73;;;;;;;-1.00;79.59;100654.59;1660409;82;25859;-66
2021/03/22 05:36:00;;;;;;;20.80;8.18;;;;;;;-0.95;79.64;100651.09;1658913;83;27625;-66
2021/03/22 05:38:29;;;;;;;16.17;6.90;;;;;;;-0.92;79.65;100649.36;1672873;82;26720;-65
2021/03/22 05:41:05;;;;;;;25.12;8.55;;;;;;;-0.87;79.66;100646.30;1662802;83;25727;-66
2021/03/22 05:43:57;;;;;;;24.35;8.43;;;;;;;-0.86;79.63;100649.81;1656062;82;26262;-64
2021/03/22 05:46:48;;;;;;;16.17;7.08;;;;;;;-0.87;79.72;100646.30;1657881;83;26009;-65
2021/03/22 05:50:04;;;;;;;25.48;8.38;;;;;;;-0.84;79.75;100647.63;1636468;82;27831;-65
2021/03/22 05:52:37;;;;;;;16.90;7.17;;;;;;;-0.85;79.77;100651.57;1659694;82;26333;-66
2021/03/22 05:55:48;;;;;;;22.48;7.55;;;;;;;-0.81;79.84;100661.23;1667719;83;26132;-65
2021/03/22 05:58:54;;;;;;;23.40;8.50;;;;;;;-0.77;79.87;100659.92;1664442;82;25857;-65
2021/03/22 06:01:44;;;;;;;21.02;7.80;;;;;;;-0.73;79.87;100663.02;1657698;82;25860;-66
2021/03/22 06:04:21;;;;;;;22.52;7.90;;;;;;;-0.68;79.89;100659.07;1659023;82;27703;-66
2021/03/22 06:06:50;;;;;;;17.40;7.42;;;;;;;-0.65;79.91;100664.34;1661516;82;26105;-66
2021/03/22 06:09:32;;;;;;;23.27;7.75;;;;;;;-0.66;79.89;100674.00;1661692;82;27328;-66
2021/03/22 06:12:30;;;;;;;25.30;7.87;;;;;;;-0.68;79.88;100676.18;1657438;83;25946;-67
2021/03/22 06:15:06;;;;;;;26.48;8.18;;;;;;;-0.69;79.89;100673.11;1657970;83;25628;-65
2021/03/22 06:17:45;;;;;;;15.13;6.45;;;;;;;-0.68;79.92;100687.59;1663277;82;27380;-66
2021/03/22 06:20:27;;;;;;;17.52;6.10;;;;;;;-0.70;79.87;100692.41;1660617;82;25639;-66
2021/03/22 06:23:00;;;;;;;19.27;8.20;;;;;;;-0.70;79.98;100693.28;1662517;83;26008;-66
2021/03/22 06:25:32;;;;;;;21.07;6.37;;;;;;;-0.70;79.95;100693.72;1662395;82;26223;-66
2021/03/22 06:28:11;;;;;;;15.90;6.60;;;;;;;-0.69;79.96;100700.74;1662510;82;25972;-68
2021/03/22 06:30:50;;;;;;;24.43;6.70;;;;;;;-0.72;79.98;100703.37;1661280;82;28590;-67
2021/03/22 06:33:35;;;;;;;23.38;7.12;;;;;;;-0.72;80.02;100706.88;1654475;83;26566;-65
2021/03/22 06:36:05;;;;;;;20.17;6.90;;;;;;;-0.74;80.06;100720.91;1654928;83;25864;-65
2021/03/22 06:38:33;;;;;;;19.40;5.50;;;;;;;-0.77;80.19;100728.79;1653267;82;26574;-64
2021/03/22 06:41:40;;;;;;;25.95;8.43;;;;;;;-0.77;80.26;100728.79;1664876;82;25782;-64
2021/03/22 06:44:33;;;;;;;18.45;6.90;;;;;;;-0.78;80.31;100723.96;1653965;83;27599;-65
2021/03/22 06:47:19;;;;;;;20.82;7.03;;;;;;;-0.71;80.34;100727.50;1664599;83;25952;-66
2021/03/22 06:49:54;;;;;;;20.90;6.47;;;;;;;-0.66;80.38;100729.70;1665219;82;26021;-66
2021/03/22 06:52:28;;;;;;;22.95;6.53;;;;;;;-0.59;80.37;100730.61;1657241;83;26599;-64
2021/03/22 06:54:57;;;;;;;17.25;6.58;;;;;;;-0.65;80.37;100714.36;1674692;82;25499;-65
2021/03/22 06:57:28;;;;;;;22.62;8.18;;;;;;;-0.47;80.42;100744.69;1663622;82;27656;-65
2021/03/22 07:00:18;;;;;;;15.50;7.08;;;;;;;-0.40;80.45;100737.25;1659058;83;26365;-66
2021/03/22 07:02:50;;;;;;;23.75;7.37;;;;;;;-0.31;80.53;100741.66;1661843;82;25918;-66
2021/03/22 07:05:30;;;;;;;16.90;6.03;;;;;;;-0.20;80.50;100743.00;1655975;82;25852;-66
2021/03/22 07:08:11;;;;;;;24.80;7.15;;;;;;;-0.12;80.55;100739.50;1649455;83;26014;-67
2021/03/22 07:10:54;;;;;;;19.42;6.87;;;;;;;-0.03;80.51;100742.14;1631431;84;27422;-65
2021/03/22 07:13:27;;;;;;;28.52;7.97;;;;;;;0.06;80.64;100746.52;1646480;84;25970;-63
2021/03/22 07:16:18;;;;;;;23.67;6.08;;;;;;;0.15;80.66;100739.05;1646235;85;25906;-65
2021/03/22 07:19:20;;;;;;;21.15;7.17;;;;;;;0.24;80.67;100742.57;1637356;84;26469;-64
2021/03/22 07:22:04;;;;;;;23.15;6.72;;;;;;;0.35;80.72;100740.38;1632109;84;25914;-64
2021/03/22 07:24:47;;;;;;;23.18;6.62;;;;;;;0.45;80.67;100747.40;1616056;84;27887;-64
2021/03/22 07:27:46;;;;;;;13.03;5.28;;;;;;;0.52;80.67;100739.48;1643059;84;25894;-64
2021/03/22 07:30:37;;;;;;;22.35;5.80;;;;;;;0.61;80.69;100742.55;1647611;84;26070;-65
2021/03/22 07:33:29;;;;;;;21.50;6.17;;;;;;;0.70;80.68;100745.17;1645997;84;26383;-65
2021/03/22 07:36:24;;;;;;;18.48;6.55;;;;;;;0.82;80.70;100748.23;1635528;84;25754;-64
2021/03/22 07:39:09;;;;;;;20.92;6.45;;;;;;;0.92;80.69;100752.16;1633227;84;27704;-63
2021/03/22 07:42:11;;;;;;;15.78;5.62;;;;;;;1.02;80.67;100757.42;1604710;85;26529;-65
2021/03/22 07:44:56;;;;;;;19.80;5.58;;;;;;;1.14;80.63;100761.34;1642692;84;25883;-65
2021/03/22 07:47:38;;;;;;;17.92;6.30;;;;;;;1.24;80.59;100760.42;1643373;84;26640;-65
2021/03/22 07:50:23;;;;;;;21.25;5.15;;;;;;;1.33;80.54;100768.31;1639958;84;25927;-64
2021/03/22 07:52:59;;;;;;;22.50;6.35;;;;;;;1.39;80.47;100766.97;1648285;84;26083;-66
2021/03/22 07:55:46;;;;;;;17.50;6.30;;;;;;;1.48;80.43;100772.66;1619610;85;25924;-64
2021/03/22 07:58:44;;;;;;;16.12;5.85;;;;;;;1.56;80.44;100777.46;1644145;85;26040;-65
2021/03/22 08:01:50;;;;;;;22.22;6.17;;;;;;;1.68;80.45;100783.13;1641674;84;25916;-65
2021/03/22 08:04:42;;;;;;;33.75;7.05;;;;;;;1.82;80.40;100789.22;1635311;84;27185;-64
2021/03/22 08:07:40;;;;;;;25.50;6.00;;;;;;;1.94;80.29;100790.47;1666070;83;27309;-64
2021/03/22 08:10:37;;;;;;;17.75;6.00;;;;;;;2.03;80.18;100790.41;1671910;84;25937;-64
2021/03/22 08:13:36;;;;;;;16.23;5.87;;;;;;;2.12;80.12;100787.72;1666261;82;25960;-64
2021/03/22 08:16:27;;;;;;;9.55;4.17;;;;;;;2.20;80.07;100788.98;1684189;84;26227;-66
2021/03/22 08:19:00;;;;;;;18.40;4.58;;;;;;;2.34;79.95;100802.11;1670101;84;25775;-64
2021/03/22 08:21:45;;;;;;;11.22;4.33;;;;;;;2.50;79.85;100802.42;1664137;82;27885;-65
2021/03/22 08:24:21;;;;;;;20.32;5.78;;;;;;;2.56;79.68;100799.28;1668853;84;25772;-65
2021/03/22 08:27:13;;;;;;;12.53;4.60;;;;;;;2.68;79.55;100796.95;1666575;82;26034;-64
2021/03/22 08:33:26;;;;;;;15.00;5.08;;;;;;;2.86;79.10;100797.22;1758577;79;25926;-65
2021/03/22 08:36:05;;;;;;;13.00;5.17;;;;;;;2.97;79.01;100793.15;1756008;79;27800;-65
2021/03/22 08:38:59;;;;;;;11.73;4.40;;;;;;;3.06;78.88;100799.67;1759122;78;26676;-64
2021/03/22 08:41:38;;;;;;;8.83;3.70;;;;;;;3.14;78.71;100801.80;1755381;78;25851;-64
2021/03/22 08:44:38;;;;;;;17.17;4.53;;;;;;;3.22;78.28;100801.27;1766729;79;26564;-66
2021/03/22 08:47:24;;;;;;;15.20;4.67;;;;;;;3.30;78.05;100804.71;1732773;79;25868;-66
2021/03/22 08:50:01;;;;;;;9.50;4.58;;;;;;;3.34;77.92;100809.08;1722219;79;28691;-65
2021/03/22 08:52:33;;;;;;;14.23;5.30;;;;;;;3.40;77.76;100809.02;1764449;78;25915;-65
2021/03/22 08:55:12;;;;;;;11.65;4.15;;;;;;;3.50;77.78;100815.95;1759780;79;25850;-66
2021/03/22 08:58:00;;;;;;;10.82;4.28;;;;;;;3.59;77.67;100816.30;1751017;79;25916;-66
2021/03/22 09:00:39;;;;;;;18.25;4.80;;;;;;;3.67;77.35;100821.05;1744056;79;25758;-65
2021/03/22 09:03:27;;;;;;;10.75;3.72;;;;;;;3.72;77.10;100823.66;1737398;80;27766;-65
2021/03/22 09:06:14;;;;;;;12.78;4.30;;;;;;;3.78;76.95;100826.22;1766383;78;25978;-65
2021/03/22 09:09:02;;;;;;;12.82;3.75;;;;;;;3.80;76.76;100809.84;1759193;79;25895;-66
2021/03/22 09:11:48;;;;;;;5.87;2.60;;;;;;;3.97;75.54;100819.78;1761704;78;26475;-64
2021/03/22 09:14:33;;;;;;;6.83;2.95;;;;;;;4.02;75.05;100828.55;1760397;79;26360;-65
2021/03/22 09:17:03;;;;;;;9.55;2.92;;;;;;;4.11;72.50;100827.55;1752914;79;28005;-66
2021/03/22 09:19:41;;;;;;;11.15;3.00;;;;;;;4.19;72.13;100826.55;1757581;78;26053;-65
2021/03/22 09:22:20;;;;;;;7.47;2.72;;;;;;;4.26;72.59;100823.34;1804735;78;25927;-66
2021/03/22 09:24:49;;;;;;;9.80;3.20;;;;;;;4.33;72.78;100826.79;1759911;78;26350;-66
2021/03/22 09:27:23;;;;;;;10.90;4.42;;;;;;;4.40;72.78;100830.66;1768781;79;26418;-66
2021/03/22 09:30:06;;;;;;;18.05;5.50;;;;;;;4.45;72.34;100827.94;1752456;79;27767;-64
2021/03/22 09:32:44;;;;;;;13.28;4.03;;;;;;;4.50;71.81;100827.41;1730940;79;25929;-66
2021/03/22 09:35:20;;;;;;;10.05;3.95;;;;;;;4.55;71.96;100830.87;1699161;80;25931;-66
2021/03/22 09:38:04;;;;;;;12.23;4.65;;;;;;;4.64;71.35;100835.16;1722118;81;26124;-65
2021/03/22 09:40:37;;;;;;;9.08;3.10;;;;;;;4.68;70.59;100838.19;1738429;80;25992;-67
2021/03/22 09:43:20;;;;;;;7.28;3.00;;;;;;;4.72;70.85;100826.16;1735180;80;27994;-67
2021/03/22 09:46:04;;;;;;;7.85;3.20;;;;;;;4.81;70.56;100834.42;1708036;81;25944;-67
2021/03/22 09:48:35;;;;;;;11.33;3.37;;;;;;;4.85;70.70;100834.80;1735191;80;25876;-67
2021/03/22 09:51:09;;;;;;;7.42;2.70;;;;;;;4.89;70.75;100838.70;1695751;81;26031;-66
2021/03/22 09:53:58;;;;;;;6.85;3.10;;;;;;;4.95;70.45;100842.16;1740624;79;25862;-67
2021/03/22 09:56:34;;;;;;;7.78;3.17;;;;;;;4.97;70.15;100833.72;1704907;80;27794;-66
2021/03/22 09:59:32;;;;;;;13.35;3.65;;;;;;;4.98;69.97;100849.63;1730062;81;25999;-65
2021/03/22 10:02:21;;;;;;;15.85;3.58;;;;;;;5.02;69.25;100838.50;1732016;79;26570;-65
2021/03/22 10:05:23;;;;;;;6.85;3.12;;;;;;;5.10;68.88;100844.55;1731652;80;25922;-65
2021/03/22 10:08:05;;;;;;;10.18;3.45;;;;;;;5.16;68.04;100848.43;1737138;79;25906;-65
2021/03/22 10:10:56;;;;;;;14.58;3.58;;;;;;;5.11;67.63;100837.01;1701767;81;27972;-66
2021/03/22 10:13:50;;;;;;;12.65;3.40;;;;;;;5.10;67.67;100848.54;1726114;81;26210;-65
2021/03/22 10:16:30;;;;;;;7.47;2.98;;;;;;;5.15;67.39;100850.66;1741821;78;27999;-64
2021/03/22 10:19:06;;;;;;;11.28;3.12;;;;;;;5.22;67.35;100847.83;1772544;78;25821;-65
2021/03/22 10:21:53;;;;;;;13.08;3.60;;;;;;;5.22;67.43;100849.61;1773223;78;25987;-66
2021/03/22 10:24:36;;;;;;;4.33;2.47;;;;;;;5.28;66.98;100848.62;1768935;78;27429;-65
2021/03/22 10:27:25;;;;;;;10.20;3.10;;;;;;;5.32;66.43;100857.84;1796228;78;26262;-67
2021/03/22 10:30:22;;;;;;;14.75;2.87;;;;;;;5.38;66.71;100848.88;1749550;79;25986;-65
2021/03/22 10:33:01;;;;;;;12.25;2.42;;;;;;;5.49;66.50;100847.77;1743147;80;26244;-65
2021/03/22 10:35:48;;;;;;;10.82;3.02;;;;;;;5.58;66.33;100844.05;1711343;81;25876;-66
2021/03/22 10:38:27;;;;;;;7.47;2.08;;;;;;;5.68;66.19;100850.94;1742428;81;27368;-64
2021/03/22 10:40:57;;;;;;;5.42;2.25;;;;;;;5.76;65.39;100849.45;1711464;81;26401;-66
2021/03/22 10:43:35;;;;;;;18.45;2.98;;;;;;;5.78;63.76;100855.62;1719705;81;26534;-63
2021/03/22 10:46:23;;;;;;;11.43;2.70;;;;;;;5.75;63.37;100855.69;1741471;81;25910;-64
2021/03/22 10:49:11;;;;;;;5.50;1.72;;;;;;;5.77;63.63;100849.42;1722273;81;25952;-63
2021/03/22 10:51:47;;;;;;;9.35;2.25;;;;;;;5.68;62.22;100828.79;1709188;81;26720;-66
2021/03/22 10:54:19;;;;;;;16.95;2.55;;;;;;;6.00;63.56;100856.09;1740005;81;25910;-65
2021/03/22 10:56:54;;;;;;;5.17;2.20;;;;;;;6.15;61.83;100846.44;1716899;81;25886;-64
2021/03/22 10:59:31;;;;;;;8.03;2.37;;;;;;;6.26;61.03;100848.41;1710117;80;26086;-65
2021/03/22 11:02:04;;;;;;;6.47;2.20;;;;;;;6.32;61.32;100848.73;1711666;81;25802;-64
2021/03/22 11:04:39;;;;;;;8.68;2.02;;;;;;;6.40;61.89;100848.97;1719119;81;27473;-66
2021/03/22 11:07:23;;;;;;;11.03;2.83;;;;;;;6.53;60.77;100854.02;1710286;81;25885;-64
2021/03/22 11:10:02;;;;;;;6.12;1.92;;;;;;;6.49;59.03;100853.21;1683322;82;26052;-64
2021/03/22 11:12:32;;;;;;;4.90;1.57;;;;;;;6.31;58.29;100858.50;1717035;81;25825;-65
2021/03/22 11:15:20;;;;;;;5.12;1.67;;;;;;;6.28;59.36;100852.37;1716356;81;25807;-63
2021/03/22 11:17:50;;;;;;;11.43;1.45;;;;;;;6.38;57.81;100850.80;1673082;82;28632;-64
2021/03/22 11:20:20;;;;;;;5.90;1.32;;;;;;;6.51;58.11;100852.72;1739665;80;26685;-63
2021/03/22 11:22:50;;;;;;;7.80;1.40;;;;;;;6.65;58.01;100861.27;1710354;81;25812;-64
2021/03/22 11:25:37;;;;;;;7.67;1.72;;;;;;;6.83;58.13;100859.94;1687552;82;25796;-63
2021/03/22 11:28:22;;;;;;;8.23;1.75;;;;;;;7.04;57.68;100855.41;1740860;79;26725;-63
2021/03/22 11:30:57;;;;;;;4.53;1.37;;;;;;;7.22;57.04;100858.05;1743817;79;27832;-64
2021/03/22 11:33:42;;;;;;;1.72;0.88;;;;;;;7.17;54.62;100874.63;1741831;79;25928;-63
2021/03/22 11:36:18;;;;;;;3.20;1.00;;;;;;;6.99;49.57;100869.77;1713961;80;26518;-65
2021/03/22 11:38:54;;;;;;;4.55;1.00;;;;;;;6.84;52.25;100865.23;1740675;79;25781;-64
2021/03/22 11:41:30;;;;;;;5.47;1.82;;;;;;;6.95;53.16;100858.77;1767333;79;26028;-64
2021/03/22 11:44:22;;;;;;;10.35;2.17;;;;;;;7.27;53.87;100854.81;1739597;81;27404;-65
2021/03/22 11:46:54;;;;;;;8.50;1.57;;;;;;;7.61;53.64;100845.89;1730958;80;25772;-66
2021/03/22 11:49:40;;;;;;;3.70;1.15;;;;;;;7.67;51.77;100850.60;1659263;82;25870;-67
2021/03/22 11:52:32;;;;;;;5.35;1.02;;;;;;;7.48;51.73;100863.57;1718057;80;25882;-64
2021/03/22 11:55:07;;;;;;;8.05;1.35;;;;;;;7.31;51.05;100871.60;1656835;84;25944;-67
2021/03/22 11:57:39;;;;;;;9.45;1.22;;;;;;;7.17;50.99;100862.63;1678754;82;27316;-66
2021/03/22 12:00:27;;;;;;;4.58;0.80;;;;;;;7.02;48.52;100863.90;1681165;81;26055;-65
2021/03/22 12:03:09;;;;;;;4.87;1.50;;;;;;;7.16;50.68;100859.55;1705766;81;25954;-66
2021/03/22 12:05:42;;;;;;;;;;;;;;;7.52;49.90;100859.03;1693510;82;26276;-67
2021/03/22 12:08:43;;;;;;;5.15;1.20;;;;;;;7.71;49.43;100870.06;1763278;79;26567;-70
2021/03/22 12:11:30;;;;;;;3.55;1.02;;;;;;;8.01;50.18;100863.81;1706405;81;27672;-70
2021/03/22 12:14:00;;;;;;;13.65;2.55;;;;;;;8.15;49.90;100866.95;1713970;81;26490;-68
2021/03/22 12:16:35;;;;;;;3.62;1.62;;;;;;;8.02;48.91;100854.89;1741625;80;26075;-68